Time,TemperatureF,DewpointF,PressureIn,WindDirection,WindDirectionDegrees,WindSpeedMPH,WindSpeedGustMPH,Humidity,HourlyPrecipIn,Conditions,Clouds,dailyrainin,SoftwareType,DateUTC
2013-04-25 00:11:00,53.6,46.6,29.71,ESE,112,4.2,-999.0,77,-99.99,,,0.00,Acu-Link.com,2013-04-25 04:11:00,
2013-04-25 00:26:00,53.2,46.5,29.72,WSW,247,4.2,-999.0,78,-99.99,,,0.00,Acu-Link.com,2013-04-25 04:26:00,
2013-04-25 00:41:00,52.9,46.6,29.70,WNW,292,2.7,-999.0,79,-99.99,,,0.00,Acu-Link.com,2013-04-25 04:41:00,
2013-04-25 00:57:00,52.7,47.0,29.70,South,180,2.7,-999.0,81,-99.99,,,0.00,Acu-Link.com,2013-04-25 04:57:00,
2013-04-25 01:12:00,52.5,47.2,29.70,West,270,3.7,-999.0,82,-99.99,,,0.00,Acu-Link.com,2013-04-25 05:12:00,
2013-04-25 01:27:00,52.5,47.5,29.70,SSW,202,2.2,-999.0,83,-99.99,,,0.00,Acu-Link.com,2013-04-25 05:27:00,
2013-04-25 01:42:00,52.7,48.0,29.71,WNW,292,7.3,-999.0,84,-99.99,,,0.00,Acu-Link.com,2013-04-25 05:42:00,
2013-04-25 01:58:00,53.1,48.4,29.70,SSW,202,5.3,-999.0,84,-99.99,,,0.00,Acu-Link.com,2013-04-25 05:58:00,
2013-04-25 02:13:00,53.2,48.8,29.70,South,180,2.7,-999.0,85,-99.99,,,0.00,Acu-Link.com,2013-04-25 06:13:00,
2013-04-25 02:28:00,53.6,49.2,29.69,WSW,247,3.7,-999.0,85,-99.99,,,0.00,Acu-Link.com,2013-04-25 06:28:00,
2013-04-25 02:43:00,53.6,49.5,29.69,West,270,4.2,-999.0,86,-99.99,,,0.00,Acu-Link.com,2013-04-25 06:43:00,
2013-04-25 02:58:00,54.1,50.0,29.70,WSW,247,2.7,-999.0,86,-99.99,,,0.00,Acu-Link.com,2013-04-25 06:58:00,
2013-04-25 03:14:00,54.5,50.4,29.72,SSW,202,4.7,-999.0,86,-99.99,,,0.00,Acu-Link.com,2013-04-25 07:14:00,
2013-04-25 03:29:00,54.9,50.8,29.73,West,270,5.3,-999.0,86,-99.99,,,0.00,Acu-Link.com,2013-04-25 07:29:00,
2013-04-25 03:44:00,55.2,51.1,29.73,WSW,247,4.7,-999.0,86,-99.99,,,0.00,Acu-Link.com,2013-04-25 07:44:00,
2013-04-25 03:59:00,55.0,51.8,29.72,West,270,1.7,-999.0,89,-99.99,,,0.00,Acu-Link.com,2013-04-25 07:59:00,
2013-04-25 04:14:00,54.3,52.0,29.73,South,180,2.2,-999.0,92,-99.99,,,0.00,Acu-Link.com,2013-04-25 08:14:00,
2013-04-25 04:30:00,53.8,52.4,29.74,WSW,247,1.7,-999.0,95,-99.99,,,0.00,Acu-Link.com,2013-04-25 08:30:00,
2013-04-25 04:45:00,53.6,52.8,29.75,West,270,1.7,-999.0,97,-99.99,,,0.01,Acu-Link.com,2013-04-25 08:45:00,
2013-04-25 05:00:00,53.4,51.7,29.78,WNW,292,7.8,-999.0,94,-99.99,,,0.01,Acu-Link.com,2013-04-25 09:00:00,
2013-04-25 05:15:00,50.7,45.1,29.80,SE,135,3.7,-999.0,81,-99.99,,,0.01,Acu-Link.com,2013-04-25 09:15:00,
2013-04-25 05:30:00,49.8,43.2,29.82,WSW,247,10.9,-999.0,78,-99.99,,,0.01,Acu-Link.com,2013-04-25 09:30:00,
2013-04-25 05:45:00,49.1,41.5,29.84,West,270,6.3,-999.0,75,-99.99,,,0.01,Acu-Link.com,2013-04-25 09:45:00,
2013-04-25 06:01:00,48.7,40.4,29.84,SSW,202,7.8,-999.0,73,-99.99,,,0.01,Acu-Link.com,2013-04-25 10:01:00,
2013-04-25 06:16:00,48.6,40.3,29.85,North,0,6.3,-999.0,73,-99.99,,,0.01,Acu-Link.com,2013-04-25 10:16:00,
2013-04-25 06:31:00,48.2,39.2,29.86,West,270,3.7,-999.0,71,-99.99,,,0.01,Acu-Link.com,2013-04-25 10:31:00,
2013-04-25 06:46:00,48.7,38.6,29.87,West,270,1.7,-999.0,68,-99.99,,,0.01,Acu-Link.com,2013-04-25 10:46:00,
2013-04-25 07:01:00,48.9,37.3,29.90,NNW,337,11.9,-999.0,64,-99.99,,,0.01,Acu-Link.com,2013-04-25 11:01:00,
2013-04-25 07:17:00,48.7,37.5,29.90,WSW,247,8.9,-999.0,65,-99.99,,,0.01,Acu-Link.com,2013-04-25 11:17:00,
2013-04-25 07:32:00,48.7,35.9,29.91,SW,225,9.4,-999.0,61,-99.99,,,0.01,Acu-Link.com,2013-04-25 11:32:00,
2013-04-25 07:47:00,48.4,34.7,29.90,NW,315,8.3,-999.0,59,-99.99,,,0.01,Acu-Link.com,2013-04-25 11:47:00,
2013-04-25 08:02:00,48.7,34.2,29.92,WSW,247,3.2,-999.0,57,-99.99,,,0.01,Acu-Link.com,2013-04-25 12:02:00,
2013-04-25 08:18:00,49.1,34.5,29.93,SW,225,8.3,-999.0,57,-99.99,,,0.01,Acu-Link.com,2013-04-25 12:18:00,
2013-04-25 08:33:00,48.9,35.2,29.93,West,270,5.8,-999.0,59,-99.99,,,0.01,Acu-Link.com,2013-04-25 12:33:00,
2013-04-25 08:48:00,50.0,34.9,29.95,WNW,292,1.7,-999.0,56,-99.99,,,0.01,Acu-Link.com,2013-04-25 12:48:00,
2013-04-25 09:03:00,49.5,33.6,29.94,West,270,6.8,-999.0,54,-99.99,,,0.01,Acu-Link.com,2013-04-25 13:03:00,
2013-04-25 09:18:00,51.6,34.1,29.95,West,270,11.9,-999.0,51,-99.99,,,0.01,Acu-Link.com,2013-04-25 13:18:00,
2013-04-25 09:34:00,52.7,33.6,29.95,NE,45,3.2,-999.0,48,-99.99,,,0.01,Acu-Link.com,2013-04-25 13:34:00,
2013-04-25 09:49:00,54.5,35.2,29.95,WSW,247,3.7,-999.0,48,-99.99,,,0.01,Acu-Link.com,2013-04-25 13:49:00,
2013-04-25 10:04:00,56.1,35.1,29.96,West,270,4.7,-999.0,45,-99.99,,,0.01,Acu-Link.com,2013-04-25 14:04:00,
2013-04-25 10:19:00,56.3,31.7,29.96,WSW,247,18.1,-999.0,39,-99.99,,,0.01,Acu-Link.com,2013-04-25 14:19:00,
2013-04-25 10:34:00,56.8,32.1,29.96,North,0,10.4,-999.0,39,-99.99,,,0.01,Acu-Link.com,2013-04-25 14:34:00,
2013-04-25 10:50:00,57.2,33.7,29.96,West,270,9.9,-999.0,41,-99.99,,,0.01,Acu-Link.com,2013-04-25 14:50:00,
2013-04-25 11:05:00,57.4,32.7,29.96,WNW,292,12.5,-999.0,39,-99.99,,,0.01,Acu-Link.com,2013-04-25 15:05:00,
2013-04-25 11:20:00,58.5,33.0,29.96,SW,225,5.8,-999.0,38,-99.99,,,0.01,Acu-Link.com,2013-04-25 15:20:00,
2013-04-25 11:35:00,58.6,32.4,29.97,NW,315,8.9,-999.0,37,-99.99,,,0.01,Acu-Link.com,2013-04-25 15:35:00,
2013-04-25 11:50:00,60.6,33.5,29.98,WNW,292,8.9,-999.0,36,-99.99,,,0.01,Acu-Link.com,2013-04-25 15:50:00,
2013-04-25 12:06:00,60.1,32.4,29.97,West,270,7.8,-999.0,35,-99.99,,,0.01,Acu-Link.com,2013-04-25 16:06:00,
2013-04-25 12:21:00,60.8,33.0,29.98,WSW,247,4.7,-999.0,35,-99.99,,,0.01,Acu-Link.com,2013-04-25 16:21:00,
2013-04-25 12:36:00,62.2,32.7,29.98,WNW,292,5.8,-999.0,33,-99.99,,,0.01,Acu-Link.com,2013-04-25 16:36:00,
2013-04-25 12:51:00,61.2,31.1,29.99,West,270,11.9,-999.0,32,-99.99,,,0.01,Acu-Link.com,2013-04-25 16:51:00,
2013-04-25 13:07:00,61.3,33.4,29.98,East,90,8.9,-999.0,35,-99.99,,,0.01,Acu-Link.com,2013-04-25 17:07:00,
2013-04-25 13:22:00,60.8,31.5,29.99,NE,45,2.7,-999.0,33,-99.99,,,0.01,Acu-Link.com,2013-04-25 17:22:00,
2013-04-25 13:37:00,63.3,32.2,29.99,North,0,3.7,-999.0,31,-99.99,,,0.01,Acu-Link.com,2013-04-25 17:37:00,
2013-04-25 13:52:00,62.8,31.7,29.99,WSW,247,6.3,-999.0,31,-99.99,,,0.01,Acu-Link.com,2013-04-25 17:52:00,
2013-04-25 14:07:00,64.0,31.9,29.98,WSW,247,5.8,-999.0,30,-99.99,,,0.01,Acu-Link.com,2013-04-25 18:07:00,
2013-04-25 14:23:00,63.9,31.9,29.98,WNW,292,8.3,-999.0,30,-99.99,,,0.01,Acu-Link.com,2013-04-25 18:23:00,
2013-04-25 14:38:00,63.1,32.0,29.98,East,90,5.3,-999.0,31,-99.99,,,0.01,Acu-Link.com,2013-04-25 18:38:00,
2013-04-25 14:54:00,62.8,30.1,29.98,ESE,112,3.7,-999.0,29,-99.99,,,0.01,Acu-Link.com,2013-04-25 18:54:00,
2013-04-25 15:09:00,64.6,31.6,29.98,WNW,292,4.2,-999.0,29,-99.99,,,0.01,Acu-Link.com,2013-04-25 19:09:00,
2013-04-25 15:24:00,63.7,27.2,29.97,NNE,22,5.8,-999.0,25,-99.99,,,0.01,Acu-Link.com,2013-04-25 19:24:00,
2013-04-25 15:39:00,64.4,27.8,29.98,West,270,5.8,-999.0,25,-99.99,,,0.01,Acu-Link.com,2013-04-25 19:39:00,
2013-04-25 15:54:00,64.0,28.4,29.98,West,270,3.7,-999.0,26,-99.99,,,0.01,Acu-Link.com,2013-04-25 19:54:00,
2013-04-25 16:10:00,64.4,28.8,29.98,WSW,247,2.7,-999.0,26,-99.99,,,0.01,Acu-Link.com,2013-04-25 20:10:00,
2013-04-25 16:25:00,64.8,27.2,29.99,West,270,5.3,-999.0,24,-99.99,,,0.01,Acu-Link.com,2013-04-25 20:25:00,
2013-04-25 16:40:00,64.0,28.4,29.99,East,90,5.3,-999.0,26,-99.99,,,0.01,Acu-Link.com,2013-04-25 20:40:00,
2013-04-25 16:55:00,66.4,27.5,30.00,West,270,4.2,-999.0,23,-99.99,,,0.01,Acu-Link.com,2013-04-25 20:55:00,
2013-04-25 17:11:00,68.4,28.1,30.00,West,270,8.9,-999.0,22,-99.99,,,0.01,Acu-Link.com,2013-04-25 21:11:00,
2013-04-25 17:26:00,66.4,27.5,30.00,NE,45,6.3,-999.0,23,-99.99,,,0.01,Acu-Link.com,2013-04-25 21:26:00,
2013-04-25 17:41:00,67.1,28.1,30.00,SW,225,1.7,-999.0,23,-99.99,,,0.01,Acu-Link.com,2013-04-25 21:41:00,
2013-04-25 17:56:00,66.9,27.9,30.01,ESE,112,2.2,-999.0,23,-99.99,,,0.01,Acu-Link.com,2013-04-25 21:56:00,
2013-04-25 18:11:00,64.2,26.7,30.01,West,270,4.2,-999.0,24,-99.99,,,0.01,Acu-Link.com,2013-04-25 22:11:00,
2013-04-25 18:27:00,65.1,26.4,30.02,NE,45,3.2,-999.0,23,-99.99,,,0.01,Acu-Link.com,2013-04-25 22:27:00,
2013-04-25 18:42:00,63.7,26.2,30.02,West,270,4.2,-999.0,24,-99.99,,,0.01,Acu-Link.com,2013-04-25 22:42:00,
2013-04-25 18:57:00,61.5,26.3,30.03,WNW,292,2.2,-999.0,26,-99.99,,,0.01,Acu-Link.com,2013-04-25 22:57:00,
2013-04-25 19:12:00,59.5,25.5,30.03,WNW,292,4.2,-999.0,27,-99.99,,,0.01,Acu-Link.com,2013-04-25 23:12:00,
2013-04-25 19:27:00,58.1,25.2,30.03,West,270,2.2,-999.0,28,-99.99,,,0.01,Acu-Link.com,2013-04-25 23:27:00,
2013-04-25 19:43:00,56.5,26.2,30.05,SW,225,1.1,-999.0,31,-99.99,,,0.01,Acu-Link.com,2013-04-25 23:43:00,
2013-04-25 19:58:00,55.4,25.3,30.05,West,270,1.7,-999.0,31,-99.99,,,0.01,Acu-Link.com,2013-04-25 23:58:00,
2013-04-25 20:13:00,54.1,25.6,30.06,West,270,3.2,-999.0,33,-99.99,,,0.01,Acu-Link.com,2013-04-26 00:13:00,
2013-04-25 20:28:00,52.7,24.4,30.07,West,270,1.7,-999.0,33,-99.99,,,0.01,Acu-Link.com,2013-04-26 00:28:00,
2013-04-25 20:43:00,51.1,25.1,30.09,West,270,0.0,-999.0,36,-99.99,,,0.01,Acu-Link.com,2013-04-26 00:43:00,
2013-04-25 20:59:00,49.8,25.9,30.10,West,270,1.1,-999.0,39,-99.99,,,0.01,Acu-Link.com,2013-04-26 00:59:00,
2013-04-25 21:14:00,49.3,25.4,30.09,West,270,0.0,-999.0,39,-99.99,,,0.01,Acu-Link.com,2013-04-26 01:14:00,
2013-04-25 21:29:00,48.0,26.0,30.11,ESE,112,1.1,-999.0,42,-99.99,,,0.01,Acu-Link.com,2013-04-26 01:29:00,
2013-04-25 21:44:00,46.2,26.6,30.12,West,270,1.1,-999.0,46,-99.99,,,0.01,Acu-Link.com,2013-04-26 01:44:00,
2013-04-25 22:00:00,45.5,26.5,30.12,WSW,247,0.0,-999.0,47,-99.99,,,0.01,Acu-Link.com,2013-04-26 02:00:00,
2013-04-25 22:15:00,45.0,25.5,30.12,WSW,247,1.7,-999.0,46,-99.99,,,0.01,Acu-Link.com,2013-04-26 02:15:00,
2013-04-25 22:30:00,44.4,26.5,30.12,WSW,247,1.7,-999.0,49,-99.99,,,0.01,Acu-Link.com,2013-04-26 02:30:00,
2013-04-25 22:45:00,43.5,28.4,30.13,SSW,202,0.0,-999.0,55,-99.99,,,0.01,Acu-Link.com,2013-04-26 02:45:00,
2013-04-25 23:00:00,42.6,33.5,30.14,SSW,202,0.0,-999.0,70,-99.99,,,0.01,Acu-Link.com,2013-04-26 03:00:00,
2013-04-25 23:16:00,41.4,32.7,30.13,West,270,1.7,-999.0,71,-99.99,,,0.01,Acu-Link.com,2013-04-26 03:16:00,
2013-04-25 23:31:00,40.8,30.7,30.15,NNW,337,0.0,-999.0,67,-99.99,,,0.01,Acu-Link.com,2013-04-26 03:31:00,
2013-04-25 23:46:00,40.3,29.9,30.15,SSW,202,0.0,-999.0,66,-99.99,,,0.01,Acu-Link.com,2013-04-26 03:46:00,